MKJS

Montego Bay/Sangster International Airport

Airport
ICAO code
MKJS
IATA Code
MBJ
Summary
ICAO Region
CARSAM
ICAO Territory
Location

Montego Bay,

Serving
Montego Bay
Elevation
4 ft
Coordinates
18° 30' 4" N , 77° 54' 48" W
KCC
Aw
Airport WX
Tropical Revolving Storm
Metar
Observation
MKJS 171000Z VRB02KT 9999 FEW022 26/22 Q1013
Station
Montego Bay / Sangster
Date/Time
2022-08-17 10:00:00
Wind speed
02 kts
Lowest cloud amount
few clouds
Temperature
26°C
Dew point
22°C
Humidity
78%
QNH
1013 hPa
Weather condition
n/a

Description

International airport serving Montego Bay, Jamaica.

Climatology

Tropical Savanna climate (Köppen climate classification Aw)

Runways

Designator Length Width Surface Rops
7/25 2662 46 ASP Yes/Yes

Airport map

Aerial View

SKYbrary Partners:

Safety knowledge contributed by: